createdAt,value
2023-01-13T00:01:23.593Z,98750.69
2023-01-13T00:04:06.272Z,98759.06
2023-01-13T00:06:54.632Z,98761.47
2023-01-13T00:09:37.096Z,98752.53
2023-01-13T00:12:25.720Z,98754.19
2023-01-13T00:15:08.017Z,98748.47
2023-01-13T00:17:57.892Z,98741.13
2023-01-13T00:20:40.025Z,98733.78
2023-01-13T00:23:28.659Z,98741.34
2023-01-13T00:26:16.972Z,98758.69
2023-01-13T00:29:06.741Z,98756.41
2023-01-13T00:31:49.976Z,98762.00
2023-01-13T00:34:44.775Z,98773.88
2023-01-13T00:37:33.970Z,98771.75
2023-01-13T00:40:17.720Z,98768.50
2023-01-13T00:43:24.332Z,98769.56
2023-01-13T00:46:07.664Z,98770.63
2023-01-13T00:48:57.645Z,98775.72
2023-01-13T00:51:39.924Z,98780.00
2023-01-13T00:54:28.693Z,98790.00
2023-01-13T00:57:12.149Z,98785.09
2023-01-13T01:00:02.761Z,98790.66
2023-01-13T01:02:45.188Z,98793.47
2023-01-13T01:05:33.605Z,98795.09
2023-01-13T01:08:16.014Z,98802.56
2023-01-13T01:11:17.546Z,98800.13
2023-01-13T01:14:02.003Z,98798.25
2023-01-13T01:16:50.732Z,98802.97
2023-01-13T01:19:33.002Z,98808.66
2023-01-13T01:22:25.640Z,98813.41
2023-01-13T01:25:10.034Z,98807.34
2023-01-13T01:27:58.543Z,98810.25
2023-01-13T01:30:47.584Z,98815.78
2023-01-13T01:33:39.669Z,98819.47
2023-01-13T01:36:37.581Z,98829.44
2023-01-13T01:39:26.597Z,98831.91
2023-01-13T01:42:33.775Z,98836.34
2023-01-13T01:45:28.021Z,98841.97
2023-01-13T01:48:11.703Z,98847.69
2023-01-13T01:50:59.940Z,98848.88
2023-01-13T01:53:41.690Z,98867.03
2023-01-13T01:56:29.927Z,98864.59
2023-01-13T01:59:12.736Z,98865.44
2023-01-13T02:01:55.951Z,98862.59
2023-01-13T02:04:48.770Z,98870.56
2023-01-13T02:07:41.000Z,98883.25
2023-01-13T02:10:27.672Z,98890.91
2023-01-13T02:13:19.977Z,98883.78
2023-01-13T02:16:27.781Z,98889.97
2023-01-13T02:20:00.043Z,98892.22
2023-01-13T02:23:13.606Z,98906.59
2023-01-13T02:26:04.954Z,98906.72
2023-01-13T02:29:17.701Z,98911.31
2023-01-13T02:32:12.225Z,98909.97
2023-01-13T02:35:14.706Z,98916.44
2023-01-13T02:38:05.977Z,98918.06
2023-01-13T02:40:57.606Z,98923.09
2023-01-13T02:44:07.611Z,98937.69
2023-01-13T02:46:56.609Z,98937.84
2023-01-13T02:49:53.613Z,98941.38
2023-01-13T02:52:57.698Z,98946.88
2023-01-13T02:55:47.971Z,98947.75
2023-01-13T02:58:35.695Z,98954.06
2023-01-13T03:01:25.066Z,98952.56
2023-01-13T03:04:06.717Z,98967.16
2023-01-13T03:06:58.870Z,98965.72
2023-01-13T03:10:01.708Z,98971.03
2023-01-13T03:13:22.546Z,98975.94
2023-01-13T03:16:37.665Z,98985.97
2023-01-13T03:19:50.520Z,98994.25
2023-01-13T03:22:57.699Z,99001.31
2023-01-13T03:25:47.110Z,99011.09
2023-01-13T03:28:44.672Z,99010.38
2023-01-13T03:31:38.980Z,99015.16
2023-01-13T03:34:28.698Z,99024.25
2023-01-13T03:37:22.030Z,99021.16
2023-01-13T03:40:15.616Z,99018.97
2023-01-13T03:43:35.704Z,99024.56
2023-01-13T03:46:35.575Z,99038.19
2023-01-13T03:49:22.035Z,99051.00
2023-01-13T03:52:15.724Z,99041.28
2023-01-13T03:55:14.586Z,99049.25
2023-01-13T03:58:22.964Z,99043.38
2023-01-13T04:01:13.709Z,99048.31
2023-01-13T04:04:32.813Z,99045.91
2023-01-13T04:07:42.800Z,99050.16
2023-01-13T04:10:42.895Z,99060.63
2023-01-13T04:13:29.635Z,99067.59
2023-01-13T04:16:19.939Z,99071.94
2023-01-13T04:19:01.539Z,99072.91
2023-01-13T04:21:50.655Z,99085.03
2023-01-13T04:24:33.987Z,99076.69
2023-01-13T04:27:22.534Z,99074.84
2023-01-13T04:30:05.212Z,99088.00
2023-01-13T04:32:53.584Z,99097.63
2023-01-13T04:35:36.031Z,99095.59
2023-01-13T04:38:29.642Z,99103.38
2023-01-13T04:41:11.889Z,99103.88
2023-01-13T04:44:00.649Z,99101.53
2023-01-13T04:46:49.591Z,99094.38
2023-01-13T04:49:39.004Z,99087.75
2023-01-13T04:52:20.551Z,99095.72
2023-01-13T04:55:10.157Z,99099.44
2023-01-13T04:57:52.625Z,99085.88
2023-01-13T05:00:34.841Z,99079.69
2023-01-13T05:03:23.685Z,99080.59
2023-01-13T05:06:11.947Z,99085.59
2023-01-13T05:08:53.505Z,99094.31
2023-01-13T05:12:00.712Z,99098.78
2023-01-13T05:15:01.330Z,99082.53
2023-01-13T05:17:51.584Z,99080.34
2023-01-13T05:20:33.991Z,99070.38
2023-01-13T05:23:40.522Z,99086.78
2023-01-13T05:26:29.565Z,99084.53
2023-01-13T05:29:11.867Z,99080.84
2023-01-13T05:32:00.630Z,99084.94
2023-01-13T05:34:55.491Z,99090.69
2023-01-13T05:37:44.650Z,99096.41
2023-01-13T05:40:51.691Z,99097.47
2023-01-13T05:43:40.636Z,99093.31
2023-01-13T05:46:22.922Z,99100.09
2023-01-13T05:49:12.604Z,99107.63
2023-01-13T05:52:01.566Z,99109.44
2023-01-13T05:54:50.693Z,99112.69
2023-01-13T05:57:32.896Z,99108.94
2023-01-13T06:00:22.634Z,99101.75
2023-01-13T06:03:04.932Z,99111.63
2023-01-13T06:05:54.486Z,99106.94
2023-01-13T06:08:44.730Z,99100.16
2023-01-13T06:11:33.977Z,99094.13
2023-01-13T06:14:15.699Z,99093.47
2023-01-13T06:17:03.892Z,99093.25
2023-01-13T06:19:46.520Z,99084.84
2023-01-13T06:22:37.919Z,99082.88
2023-01-13T06:26:01.578Z,99072.59
2023-01-13T06:28:50.592Z,99067.50
2023-01-13T06:31:33.969Z,99067.31
2023-01-13T06:34:24.607Z,99066.09
2023-01-13T06:37:20.538Z,99066.34
2023-01-13T06:40:11.618Z,99066.34
2023-01-13T06:43:13.807Z,99062.03
2023-01-13T06:46:05.523Z,99061.41
2023-01-13T06:48:47.947Z,99072.25
2023-01-13T06:51:36.681Z,99067.78
2023-01-13T06:54:18.851Z,99051.59
2023-01-13T06:57:07.722Z,99059.81
2023-01-13T06:59:50.692Z,99047.50
2023-01-13T07:02:39.617Z,99048.13
2023-01-13T07:05:22.960Z,99046.47
2023-01-13T07:08:11.647Z,99047.31
2023-01-13T07:10:54.175Z,99044.44
2023-01-13T07:14:01.583Z,99041.78
2023-01-13T07:16:45.623Z,99036.47
2023-01-13T07:19:34.447Z,99041.97
2023-01-13T07:22:16.989Z,99042.19
2023-01-13T07:25:05.910Z,99038.69
2023-01-13T07:27:47.970Z,99035.41
2023-01-13T07:30:37.583Z,99025.16
2023-01-13T07:33:26.618Z,99024.16
2023-01-13T07:36:23.504Z,99025.19
2023-01-13T07:39:12.610Z,99037.03
2023-01-13T07:42:13.131Z,99029.28
2023-01-13T07:45:01.607Z,99029.47
2023-01-13T07:47:50.874Z,99033.38
2023-01-13T07:50:38.913Z,99039.28
2023-01-13T07:53:20.567Z,99032.56
2023-01-13T07:56:09.990Z,99028.47
2023-01-13T07:58:57.517Z,99025.19
2023-01-13T08:01:46.576Z,99025.38
2023-01-13T08:04:35.511Z,99026.00
2023-01-13T08:07:24.514Z,99028.44
2023-01-13T08:10:06.822Z,99023.75
2023-01-13T08:13:31.666Z,99017.19
2023-01-13T08:16:19.564Z,99009.41
2023-01-13T08:19:08.352Z,99006.53
2023-01-13T08:21:51.014Z,98996.28
2023-01-13T08:24:39.520Z,98996.09
2023-01-13T08:27:28.734Z,99002.03
2023-01-13T08:30:17.968Z,98993.66
2023-01-13T08:32:59.570Z,98984.63
2023-01-13T08:36:00.525Z,98984.81
2023-01-13T08:38:50.605Z,98989.53
2023-01-13T08:41:51.236Z,98983.31
2023-01-13T08:44:41.606Z,98978.56
2023-01-13T08:47:30.544Z,98975.38
2023-01-13T08:50:19.819Z,98976.63
2023-01-13T08:53:02.512Z,98979.03
2023-01-13T08:55:51.568Z,98975.78
2023-01-13T08:58:40.634Z,98976.22
2023-01-13T09:01:30.660Z,98980.34
2023-01-13T09:04:20.730Z,98985.06
2023-01-13T09:07:03.974Z,98991.41
2023-01-13T09:09:53.531Z,98990.78
2023-01-13T09:13:01.346Z,98990.78
2023-01-13T09:15:43.560Z,98991.22
2023-01-13T09:18:33.019Z,98997.31
2023-01-13T09:21:17.567Z,98990.41
2023-01-13T09:23:59.801Z,98995.50
2023-01-13T09:26:48.569Z,99002.25
2023-01-13T09:29:36.806Z,98993.44
2023-01-13T09:32:23.520Z,98990.59
2023-01-13T09:35:08.569Z,99003.25
2023-01-13T09:37:56.823Z,98996.72
2023-01-13T09:40:38.642Z,98995.28
2023-01-13T09:43:56.142Z,98993.47
2023-01-13T09:46:56.737Z,98990.19
2023-01-13T09:49:51.033Z,98987.72
2023-01-13T09:52:35.613Z,98987.94
2023-01-13T09:55:51.115Z,98986.06
2023-01-13T09:58:33.492Z,98981.59
2023-01-13T10:01:50.054Z,98990.59
2023-01-13T10:04:32.514Z,98992.03
2023-01-13T10:07:25.400Z,98999.59
2023-01-13T10:10:09.933Z,98994.28
2023-01-13T10:13:17.736Z,98996.28
2023-01-13T10:16:19.795Z,98995.31
2023-01-13T10:19:20.643Z,98991.19
2023-01-13T10:22:50.055Z,99003.03
2023-01-13T10:25:59.643Z,99000.78
2023-01-13T10:28:42.270Z,98996.69
2023-01-13T10:31:32.720Z,98989.94
2023-01-13T10:34:24.500Z,98996.91
2023-01-13T10:37:20.583Z,99003.63
2023-01-13T10:40:04.187Z,99005.88
2023-01-13T10:42:53.496Z,99004.66
2023-01-13T10:46:11.541Z,99009.97
2023-01-13T10:49:01.774Z,99015.28
2023-01-13T10:51:47.111Z,99014.81
2023-01-13T10:54:35.498Z,99019.78
2023-01-13T10:57:31.879Z,99009.09
2023-01-13T11:00:36.580Z,99018.56
2023-01-13T11:03:29.959Z,99023.28
2023-01-13T11:06:32.493Z,99024.97
2023-01-13T11:09:29.901Z,99015.75
2023-01-13T11:12:41.606Z,99038.50
2023-01-13T11:15:32.968Z,99039.50
2023-01-13T11:18:47.637Z,99038.06
2023-01-13T11:21:37.187Z,99031.75
2023-01-13T11:24:46.521Z,99029.69
2023-01-13T11:27:44.043Z,99028.06
2023-01-13T11:30:43.480Z,99030.28
2023-01-13T11:33:33.875Z,99039.53
2023-01-13T11:36:34.678Z,99039.13
2023-01-13T11:39:27.992Z,99044.59
2023-01-13T11:42:28.463Z,99040.31
2023-01-13T11:45:22.860Z,99040.50
2023-01-13T11:48:15.593Z,99038.69
2023-01-13T11:51:23.907Z,99035.00
2023-01-13T11:54:32.542Z,99025.41
2023-01-13T11:57:33.020Z,99034.38
2023-01-13T12:00:50.473Z,99038.28
2023-01-13T12:04:20.695Z,99031.09
2023-01-13T12:07:23.163Z,99043.16
2023-01-13T12:10:21.453Z,99035.78
2023-01-13T12:13:13.888Z,99043.19
2023-01-13T12:16:06.573Z,99034.78
2023-01-13T12:19:32.491Z,99037.22
2023-01-13T12:22:30.569Z,99038.47
2023-01-13T12:25:38.256Z,99033.78
2023-01-13T12:29:02.614Z,99036.63
2023-01-13T12:31:45.632Z,99042.34
2023-01-13T12:34:47.621Z,99029.06
2023-01-13T12:37:52.051Z,99042.97
2023-01-13T12:40:46.422Z,99045.22
2023-01-13T12:43:54.090Z,99032.13
2023-01-13T12:46:35.485Z,99043.84
2023-01-13T12:49:29.969Z,99036.88
2023-01-13T12:52:22.543Z,99049.34
2023-01-13T12:55:10.672Z,99060.00
2023-01-13T12:58:13.503Z,99053.22
2023-01-13T13:01:00.473Z,99062.25
2023-01-13T13:03:50.507Z,99058.16
2023-01-13T13:06:40.215Z,99065.50
2023-01-13T13:10:03.529Z,99065.91
2023-01-13T13:13:03.945Z,99079.41
2023-01-13T13:15:52.655Z,99069.38
2023-01-13T13:18:41.942Z,99076.50
2023-01-13T13:21:23.543Z,99083.53
2023-01-13T13:24:19.324Z,99081.69
2023-01-13T13:27:03.667Z,99089.88
2023-01-13T13:30:06.768Z,99097.88
2023-01-13T13:33:07.591Z,99091.53
2023-01-13T13:36:13.471Z,99106.03
2023-01-13T13:39:44.550Z,99102.50
2023-01-13T13:42:55.689Z,99116.84
2023-01-13T13:46:02.496Z,99115.38
2023-01-13T13:48:44.894Z,99126.31
2023-01-13T13:51:44.633Z,99123.69
2023-01-13T13:54:30.832Z,99127.91
2023-01-13T13:57:29.705Z,99126.59
2023-01-13T14:00:45.810Z,99132.66
2023-01-13T14:03:44.506Z,99131.03
2023-01-13T14:06:33.694Z,99129.16
2023-01-13T14:09:27.464Z,99131.03
2023-01-13T14:12:13.906Z,99134.22
2023-01-13T14:15:05.560Z,99133.22
2023-01-13T14:17:47.867Z,99126.59
2023-01-13T14:20:36.456Z,99135.41
2023-01-13T14:23:33.382Z,99137.38
2023-01-13T14:26:24.460Z,99143.59
2023-01-13T14:29:09.784Z,99153.13
2023-01-13T14:31:59.517Z,99159.41
2023-01-13T14:34:43.763Z,99163.47
2023-01-13T14:37:47.366Z,99165.19
2023-01-13T14:40:45.801Z,99169.25
2023-01-13T14:43:34.362Z,99184.34
2023-01-13T14:46:18.749Z,99180.78
2023-01-13T14:49:10.421Z,99180.78
2023-01-13T14:51:53.732Z,99179.56
2023-01-13T14:54:50.372Z,99180.31
2023-01-13T14:57:40.490Z,99184.69
2023-01-13T15:00:33.494Z,99183.88
2023-01-13T15:03:23.876Z,99192.41
2023-01-13T15:06:33.835Z,99187.16
2023-01-13T15:09:31.388Z,99195.81
2023-01-13T15:12:25.777Z,99191.84
2023-01-13T15:15:34.398Z,99195.75
2023-01-13T15:18:24.688Z,99199.16
2023-01-13T15:21:06.308Z,99206.28
2023-01-13T15:23:48.677Z,99201.38
2023-01-13T15:26:43.349Z,99197.00
2023-01-13T15:29:32.473Z,99199.69
2023-01-13T15:32:27.894Z,99199.66
2023-01-13T15:35:17.451Z,99208.41
2023-01-13T15:38:05.685Z,99201.59
2023-01-13T15:40:49.453Z,99212.47
2023-01-13T15:43:56.385Z,99205.00
2023-01-13T15:46:48.550Z,99211.84
2023-01-13T15:50:00.323Z,99213.59
2023-01-13T15:52:49.464Z,99216.03
2023-01-13T15:55:31.682Z,99220.88
2023-01-13T15:58:25.827Z,99218.03
2023-01-13T16:01:15.529Z,99218.72
2023-01-13T16:03:57.646Z,99220.38
2023-01-13T16:06:46.500Z,99225.88
2023-01-13T16:09:34.710Z,99229.47
2023-01-13T16:12:16.463Z,99225.69
2023-01-13T16:14:58.651Z,99230.38
2023-01-13T16:17:49.412Z,99225.75
2023-01-13T16:20:38.833Z,99229.09
2023-01-13T16:23:21.376Z,99223.34
2023-01-13T16:26:14.798Z,99234.41
2023-01-13T16:28:58.393Z,99228.28
2023-01-13T16:31:40.922Z,99229.78
2023-01-13T16:34:29.332Z,99234.03
2023-01-13T16:37:37.335Z,99231.81
2023-01-13T16:40:44.395Z,99233.34
2023-01-13T16:43:26.757Z,99233.97
2023-01-13T16:46:28.473Z,99237.13
2023-01-13T16:49:13.753Z,99239.44
2023-01-13T16:52:02.513Z,99243.00
2023-01-13T16:54:44.715Z,99240.34
2023-01-13T16:57:33.597Z,99243.94
2023-01-13T17:00:17.836Z,99239.13
2023-01-13T17:03:10.497Z,99247.16
2023-01-13T17:05:54.751Z,99255.09
2023-01-13T17:08:43.369Z,99258.03
2023-01-13T17:11:32.513Z,99259.19
2023-01-13T17:14:18.797Z,99255.38
2023-01-13T17:17:04.469Z,99255.19
2023-01-13T17:19:46.850Z,99260.06
2023-01-13T17:22:30.420Z,99249.06
2023-01-13T17:25:14.517Z,99244.03
2023-01-13T17:28:03.525Z,99238.94
2023-01-13T17:30:52.904Z,99232.59
2023-01-13T17:33:35.523Z,99234.97
2023-01-13T17:36:30.353Z,99230.69
2023-01-13T17:39:27.488Z,99226.88
2023-01-13T17:42:10.003Z,99240.31
2023-01-13T17:44:59.594Z,99230.81
2023-01-13T17:47:41.966Z,99239.94
2023-01-13T17:50:32.582Z,99234.03
2023-01-13T17:53:14.909Z,99243.47
2023-01-13T17:56:03.656Z,99231.69
2023-01-13T17:58:47.950Z,99228.97
2023-01-13T18:01:40.548Z,99229.88
2023-01-13T18:04:25.834Z,99229.97
2023-01-13T18:07:14.458Z,99226.69
2023-01-13T18:10:03.507Z,99225.03
2023-01-13T18:12:51.806Z,99225.94
2023-01-13T18:15:34.426Z,99226.94
2023-01-13T18:18:22.780Z,99229.69
2023-01-13T18:21:23.474Z,99228.13
2023-01-13T18:24:25.642Z,99228.56
2023-01-13T18:27:26.481Z,99220.34
2023-01-13T18:30:16.849Z,99222.59
2023-01-13T18:32:58.447Z,99224.81
2023-01-13T18:35:47.847Z,99221.50
2023-01-13T18:38:36.506Z,99230.00
2023-01-13T18:41:48.262Z,99216.53
2023-01-13T18:44:37.683Z,99217.88
2023-01-13T18:47:26.494Z,99216.31
2023-01-13T18:50:16.449Z,99214.19
2023-01-13T18:52:59.889Z,99213.78
2023-01-13T18:55:48.403Z,99214.47
2023-01-13T18:58:31.788Z,99221.88
2023-01-13T19:01:20.696Z,99221.44
2023-01-13T19:04:11.247Z,99221.88
2023-01-13T19:07:00.838Z,99225.03
2023-01-13T19:09:43.435Z,99218.22
2023-01-13T19:12:35.845Z,99225.56
2023-01-13T19:15:21.037Z,99217.97
2023-01-13T19:18:10.786Z,99214.75
2023-01-13T19:20:57.074Z,99221.91
2023-01-13T19:23:45.719Z,99222.16
2023-01-13T19:26:27.735Z,99221.09
2023-01-13T19:29:17.645Z,99217.84
2023-01-13T19:32:00.242Z,99227.19
2023-01-13T19:34:50.472Z,99212.72
2023-01-13T19:37:41.661Z,99219.25
2023-01-13T19:40:23.854Z,99221.63
2023-01-13T19:43:30.380Z,99221.13
2023-01-13T19:46:14.038Z,99220.97
2023-01-13T19:49:02.587Z,99219.25
2023-01-13T19:51:50.731Z,99227.06
2023-01-13T19:54:32.533Z,99216.25
2023-01-13T19:57:15.656Z,99217.53
2023-01-13T20:00:04.455Z,99218.88
2023-01-13T20:03:01.794Z,99213.34
2023-01-13T20:05:44.376Z,99220.34
2023-01-13T20:08:33.998Z,99220.81
2023-01-13T20:11:31.553Z,99220.25
2023-01-13T20:14:20.848Z,99222.53
2023-01-13T20:17:02.357Z,99213.38
2023-01-13T20:19:52.892Z,99217.09
2023-01-13T20:22:35.518Z,99218.66
2023-01-13T20:25:24.839Z,99220.34
2023-01-13T20:28:09.426Z,99220.91
2023-01-13T20:30:58.969Z,99221.28
2023-01-13T20:33:40.430Z,99215.31
2023-01-13T20:36:51.301Z,99225.47
2023-01-13T20:39:41.370Z,99222.16
2023-01-13T20:42:33.075Z,99222.97
2023-01-13T20:45:25.517Z,99220.38
2023-01-13T20:48:07.905Z,99224.13
2023-01-13T20:51:01.509Z,99227.38
2023-01-13T20:53:43.839Z,99231.69
2023-01-13T20:56:32.451Z,99229.06
2023-01-13T20:59:16.251Z,99227.94
2023-01-13T21:02:05.552Z,99220.72
2023-01-13T21:04:48.816Z,99221.19
2023-01-13T21:07:37.601Z,99221.22
2023-01-13T21:10:19.833Z,99216.41
2023-01-13T21:13:26.404Z,99218.88
2023-01-13T21:16:08.924Z,99221.66
2023-01-13T21:19:16.595Z,99217.72
2023-01-13T21:22:05.302Z,99215.75
2023-01-13T21:24:53.731Z,99218.22
2023-01-13T21:27:36.439Z,99211.28
2023-01-13T21:30:25.758Z,99205.19
2023-01-13T21:33:08.449Z,99213.09
2023-01-13T21:35:56.955Z,99212.47
2023-01-13T21:38:45.447Z,99215.25
2023-01-13T21:41:46.277Z,99211.44
2023-01-13T21:44:53.479Z,99215.75
2023-01-13T21:47:51.352Z,99222.69
2023-01-13T21:50:40.496Z,99227.00
2023-01-13T21:53:22.835Z,99230.06
2023-01-13T21:56:11.417Z,99224.31
2023-01-13T21:58:53.822Z,99228.78
2023-01-13T22:02:00.762Z,99229.75
2023-01-13T22:04:45.100Z,99222.00
2023-01-13T22:07:35.412Z,99224.97
2023-01-13T22:10:21.806Z,99213.91
2023-01-13T22:13:29.496Z,99222.00
2023-01-13T22:16:11.852Z,99211.94
2023-01-13T22:19:01.415Z,99212.78
2023-01-13T22:21:44.767Z,99221.34
2023-01-13T22:24:33.437Z,99219.22
2023-01-13T22:27:22.345Z,99219.53
2023-01-13T22:30:04.651Z,99209.63
2023-01-13T22:32:53.351Z,99206.44
2023-01-13T22:35:41.844Z,99213.88
2023-01-13T22:38:24.385Z,99213.25
2023-01-13T22:41:15.733Z,99209.31
2023-01-13T22:43:58.355Z,99207.34
2023-01-13T22:46:46.668Z,99206.66
2023-01-13T22:49:29.438Z,99211.44
2023-01-13T22:52:18.343Z,99200.56
2023-01-13T22:55:08.365Z,99208.81
2023-01-13T22:57:56.743Z,99206.16
2023-01-13T23:00:38.350Z,99213.75
2023-01-13T23:03:21.055Z,99205.50
2023-01-13T23:06:13.472Z,99214.22
2023-01-13T23:08:55.907Z,99219.50
2023-01-13T23:11:47.188Z,99211.09
2023-01-13T23:14:35.725Z,99216.03
2023-01-13T23:17:18.349Z,99216.03
2023-01-13T23:20:00.682Z,99219.16
2023-01-13T23:22:50.472Z,99219.66
2023-01-13T23:25:32.634Z,99214.38
2023-01-13T23:28:21.333Z,99216.19
2023-01-13T23:31:15.517Z,99226.44
2023-01-13T23:34:04.483Z,99223.22
2023-01-13T23:36:59.352Z,99214.63
2023-01-13T23:39:48.298Z,99224.72
2023-01-13T23:42:30.734Z,99227.19
2023-01-13T23:45:19.310Z,99235.25
2023-01-13T23:48:01.764Z,99232.78
2023-01-13T23:50:50.438Z,99233.66
2023-01-13T23:53:34.371Z,99230.91
2023-01-13T23:56:26.474Z,99234.00
2023-01-13T23:59:15.376Z,99237.19
